createdAt,value
2023-03-26T00:02:07.939Z,4.20
2023-03-26T00:04:36.635Z,5.47
2023-03-26T00:07:05.430Z,3.97
2023-03-26T00:09:33.811Z,3.30
2023-03-26T00:12:03.956Z,4.23
2023-03-26T00:14:32.672Z,4.77
2023-03-26T00:17:01.421Z,3.60
2023-03-26T00:19:30.186Z,4.70
2023-03-26T00:21:58.918Z,3.80
2023-03-26T00:24:29.631Z,3.97
2023-03-26T00:26:59.669Z,4.57
2023-03-26T00:29:33.243Z,3.33
2023-03-26T00:32:01.999Z,3.80
2023-03-26T00:34:30.900Z,4.40
2023-03-26T00:37:02.551Z,3.97
2023-03-26T00:39:35.698Z,3.67
2023-03-26T00:42:06.923Z,4.10
2023-03-26T00:44:36.934Z,3.00
2023-03-26T00:47:05.723Z,3.30
2023-03-26T00:49:34.395Z,3.43
2023-03-26T00:52:03.691Z,2.67
2023-03-26T00:54:32.174Z,3.30
2023-03-26T00:57:00.872Z,3.03
2023-03-26T00:59:30.326Z,2.97
2023-03-26T01:02:00.584Z,3.17
2023-03-26T01:04:31.872Z,3.20
2023-03-26T01:07:04.328Z,2.70
2023-03-26T01:09:36.773Z,3.30
2023-03-26T01:12:09.258Z,3.40
2023-03-26T01:14:39.583Z,2.87
2023-03-26T01:17:12.464Z,3.43
2023-03-26T01:19:48.531Z,2.87
2023-03-26T01:22:20.121Z,3.23
2023-03-26T01:24:54.062Z,3.27
2023-03-26T01:27:33.602Z,2.63
2023-03-26T01:30:11.232Z,2.97
2023-03-26T01:32:55.550Z,2.70
2023-03-26T01:35:34.402Z,3.10
2023-03-26T01:38:11.979Z,2.70
2023-03-26T01:40:49.418Z,3.43
2023-03-26T01:43:28.040Z,3.17
2023-03-26T01:45:59.222Z,3.30
2023-03-26T01:48:37.472Z,3.93
2023-03-26T01:51:07.505Z,3.03
2023-03-26T01:53:39.036Z,3.73
2023-03-26T01:56:15.662Z,3.87
2023-03-26T01:58:57.559Z,3.57
2023-03-26T02:01:31.066Z,2.97
2023-03-26T02:04:05.094Z,3.20
2023-03-26T02:06:42.597Z,2.77
2023-03-26T02:09:15.873Z,2.97
2023-03-26T02:11:47.907Z,4.63
2023-03-26T02:14:17.211Z,3.23
2023-03-26T02:16:47.944Z,2.83
2023-03-26T02:19:21.760Z,3.20
2023-03-26T02:21:51.337Z,2.50
2023-03-26T02:24:21.560Z,3.57
2023-03-26T02:26:55.957Z,3.13
2023-03-26T02:29:26.567Z,3.33
2023-03-26T02:31:55.497Z,2.93
2023-03-26T02:34:24.553Z,2.87
2023-03-26T02:36:57.152Z,2.83
2023-03-26T02:39:26.637Z,3.43
2023-03-26T02:42:07.276Z,2.87
2023-03-26T02:44:42.047Z,3.23
2023-03-26T02:47:10.513Z,2.70
2023-03-26T02:49:54.353Z,3.13
2023-03-26T02:52:51.878Z,3.17
2023-03-26T02:55:20.674Z,3.43
2023-03-26T02:57:51.983Z,3.37
2023-03-26T03:00:23.234Z,3.33
2023-03-26T03:03:24.472Z,3.10
2023-03-26T03:06:02.312Z,3.50
2023-03-26T03:08:39.787Z,2.80
2023-03-26T03:11:29.498Z,2.43
2023-03-26T03:13:59.348Z,3.30
2023-03-26T03:16:29.626Z,2.90
2023-03-26T03:19:01.899Z,2.57
2023-03-26T03:21:43.629Z,2.43
2023-03-26T03:24:13.873Z,4.73
2023-03-26T03:26:47.782Z,2.67
2023-03-26T03:29:31.117Z,2.47
2023-03-26T03:32:07.193Z,2.70
2023-03-26T03:34:42.475Z,2.93
2023-03-26T03:37:11.775Z,3.10
2023-03-26T03:39:52.749Z,3.03
2023-03-26T03:42:23.949Z,3.63
2023-03-26T03:44:56.621Z,3.07
2023-03-26T03:47:43.909Z,4.80
2023-03-26T03:50:14.042Z,3.00
2023-03-26T03:52:54.158Z,3.43
2023-03-26T03:55:24.039Z,2.37
2023-03-26T03:57:56.202Z,2.80
2023-03-26T04:00:27.831Z,3.23
2023-03-26T04:03:33.851Z,3.17
2023-03-26T04:06:07.931Z,2.60
2023-03-26T04:08:37.642Z,2.97
2023-03-26T04:11:07.982Z,3.63
2023-03-26T04:14:02.266Z,3.00
2023-03-26T04:16:44.489Z,2.63
2023-03-26T04:19:14.397Z,3.03
2023-03-26T04:21:43.383Z,3.93
2023-03-26T04:24:12.781Z,3.33
2023-03-26T04:27:02.166Z,3.80
2023-03-26T04:29:43.112Z,2.67
2023-03-26T04:32:24.647Z,3.13
2023-03-26T04:34:54.070Z,3.57
2023-03-26T04:37:32.368Z,2.73
2023-03-26T04:40:13.101Z,3.00
2023-03-26T04:42:54.644Z,2.43
2023-03-26T04:45:39.959Z,2.93
2023-03-26T04:48:14.749Z,2.83
2023-03-26T04:50:45.274Z,3.13
2023-03-26T04:53:17.192Z,2.93
2023-03-26T04:56:12.996Z,2.93
2023-03-26T04:59:26.094Z,4.07
2023-03-26T05:01:57.967Z,3.27
2023-03-26T05:04:30.372Z,3.03
2023-03-26T05:07:00.920Z,3.13
2023-03-26T05:09:43.190Z,2.93
2023-03-26T05:12:18.624Z,2.67
2023-03-26T05:15:10.050Z,3.33
2023-03-26T05:18:08.847Z,3.07
2023-03-26T05:20:43.487Z,4.00
2023-03-26T05:23:12.602Z,3.23
2023-03-26T05:25:44.275Z,3.23
2023-03-26T05:28:20.847Z,3.17
2023-03-26T05:30:57.281Z,2.87
2023-03-26T05:33:28.612Z,2.57
2023-03-26T05:36:13.378Z,3.20
2023-03-26T05:38:47.332Z,2.67
2023-03-26T05:41:20.264Z,2.70
2023-03-26T05:43:51.167Z,3.67
2023-03-26T05:46:23.928Z,3.43
2023-03-26T05:48:53.986Z,2.87
2023-03-26T05:51:24.498Z,3.40
2023-03-26T05:54:13.156Z,2.57
2023-03-26T05:57:00.695Z,3.43
2023-03-26T05:59:48.029Z,3.27
2023-03-26T06:02:48.928Z,3.33
2023-03-26T06:05:41.123Z,2.87
2023-03-26T06:08:16.428Z,3.00
2023-03-26T06:10:51.755Z,2.90
2023-03-26T06:13:20.339Z,3.03
2023-03-26T06:15:51.836Z,2.47
2023-03-26T06:18:31.593Z,2.60
2023-03-26T06:21:19.797Z,3.03
2023-03-26T06:23:56.791Z,3.20
2023-03-26T06:27:01.754Z,2.93
2023-03-26T06:29:49.103Z,3.00
2023-03-26T06:32:37.787Z,2.93
2023-03-26T06:35:12.470Z,3.93
2023-03-26T06:37:42.397Z,3.23
2023-03-26T06:40:14.767Z,2.70
2023-03-26T06:43:08.738Z,2.30
2023-03-26T06:45:57.718Z,3.00
2023-03-26T06:48:44.969Z,2.93
2023-03-26T06:51:51.621Z,3.30
2023-03-26T06:54:39.529Z,2.80
2023-03-26T06:57:27.849Z,2.60
2023-03-26T07:00:29.078Z,2.90
2023-03-26T07:03:17.308Z,2.90
2023-03-26T07:06:09.653Z,3.43
2023-03-26T07:08:57.495Z,2.57
2023-03-26T07:11:44.994Z,2.20
2023-03-26T07:14:17.784Z,2.53
2023-03-26T07:17:05.733Z,2.90
2023-03-26T07:19:39.522Z,2.43
2023-03-26T07:22:08.787Z,2.80
2023-03-26T07:24:56.569Z,2.20
2023-03-26T07:27:51.823Z,2.10
2023-03-26T07:30:40.241Z,2.80
2023-03-26T07:33:41.626Z,2.70
2023-03-26T07:36:36.047Z,3.10
2023-03-26T07:39:44.057Z,3.30
2023-03-26T07:42:46.786Z,3.07
2023-03-26T07:45:49.911Z,3.30
2023-03-26T07:48:25.508Z,3.43
2023-03-26T07:51:11.018Z,3.00
2023-03-26T07:54:06.701Z,3.20
2023-03-26T07:57:02.519Z,2.83
2023-03-26T07:59:39.578Z,3.70
2023-03-26T08:02:42.742Z,2.83
2023-03-26T08:05:29.556Z,3.00
2023-03-26T08:08:16.474Z,3.90
2023-03-26T08:11:12.031Z,3.23
2023-03-26T08:13:59.306Z,3.10
2023-03-26T08:16:32.856Z,3.43
2023-03-26T08:19:12.760Z,3.30
2023-03-26T08:21:48.014Z,2.40
2023-03-26T08:24:23.869Z,3.87
2023-03-26T08:26:58.814Z,4.17
2023-03-26T08:29:34.868Z,4.43
2023-03-26T08:32:05.269Z,3.40
2023-03-26T08:34:35.360Z,2.80
2023-03-26T08:37:04.518Z,3.83
2023-03-26T08:39:33.177Z,2.60
2023-03-26T08:42:44.287Z,2.70
2023-03-26T08:45:32.675Z,2.30
2023-03-26T08:48:30.111Z,3.60
2023-03-26T08:51:43.787Z,2.70
2023-03-26T08:54:45.504Z,3.20
2023-03-26T08:57:56.060Z,5.27
2023-03-26T09:00:40.749Z,4.13
2023-03-26T09:03:27.908Z,2.80
2023-03-26T09:06:31.134Z,3.10
2023-03-26T09:09:37.180Z,3.70
2023-03-26T09:12:42.259Z,3.30
2023-03-26T09:16:08.319Z,2.80
2023-03-26T09:19:18.575Z,2.97
2023-03-26T09:22:38.745Z,3.57
2023-03-26T09:25:30.848Z,2.93
2023-03-26T09:28:40.583Z,2.33
2023-03-26T09:31:28.903Z,2.73
2023-03-26T09:34:19.990Z,2.87
2023-03-26T09:37:18.189Z,2.37
2023-03-26T09:40:01.827Z,2.60
2023-03-26T09:42:43.696Z,2.43
2023-03-26T09:45:41.038Z,2.90
2023-03-26T09:48:37.031Z,2.33
2023-03-26T09:51:30.711Z,2.33
2023-03-26T09:54:19.360Z,2.73
2023-03-26T09:56:58.016Z,2.67
2023-03-26T09:59:58.999Z,2.60
2023-03-26T10:02:46.993Z,2.97
2023-03-26T10:05:34.281Z,2.40
2023-03-26T10:08:14.553Z,2.10
2023-03-26T10:10:51.628Z,2.93
2023-03-26T10:13:31.740Z,2.73
2023-03-26T10:16:13.296Z,3.10
2023-03-26T10:18:56.817Z,2.97
2023-03-26T10:21:35.392Z,3.77
2023-03-26T10:24:28.687Z,2.73
2023-03-26T10:27:13.971Z,3.63
2023-03-26T10:30:02.309Z,2.23
2023-03-26T10:32:38.023Z,2.70
2023-03-26T10:35:20.484Z,3.10
2023-03-26T10:38:13.060Z,2.20
2023-03-26T10:40:56.285Z,2.70
2023-03-26T10:43:42.932Z,3.30
2023-03-26T10:46:31.015Z,5.13
2023-03-26T10:49:21.614Z,3.03
2023-03-26T10:51:53.477Z,3.67
2023-03-26T10:54:34.901Z,2.80
2023-03-26T10:57:08.969Z,3.37
2023-03-26T10:59:38.960Z,2.83
2023-03-26T11:02:29.270Z,3.40
2023-03-26T11:05:18.896Z,3.60
2023-03-26T11:07:53.867Z,3.80
2023-03-26T11:10:29.885Z,4.63
2023-03-26T11:13:05.068Z,3.63
2023-03-26T11:15:40.341Z,2.40
2023-03-26T11:18:17.709Z,2.77
2023-03-26T11:20:51.118Z,2.87
2023-03-26T11:23:33.993Z,2.87
2023-03-26T11:26:08.529Z,2.63
2023-03-26T11:29:04.270Z,2.50
2023-03-26T11:31:55.753Z,2.43
2023-03-26T11:34:32.472Z,2.70
2023-03-26T11:37:06.481Z,2.67
2023-03-26T11:39:42.735Z,3.90
2023-03-26T11:42:15.465Z,3.10
2023-03-26T11:44:52.273Z,2.27
2023-03-26T11:47:25.852Z,2.60
2023-03-26T11:49:59.997Z,4.47
2023-03-26T11:52:29.159Z,3.93
2023-03-26T11:54:59.394Z,2.70
2023-03-26T11:57:33.208Z,2.97
2023-03-26T12:00:16.623Z,3.80
2023-03-26T12:02:48.374Z,2.03
2023-03-26T12:05:20.599Z,2.60
2023-03-26T12:07:54.093Z,2.43
2023-03-26T12:10:31.099Z,3.47
2023-03-26T12:13:01.815Z,2.50
2023-03-26T12:15:32.253Z,2.88
2023-03-26T12:18:24.311Z,3.87
2023-03-26T12:21:05.455Z,2.70
2023-03-26T12:23:56.138Z,2.47
2023-03-26T12:26:38.080Z,2.70
2023-03-26T12:29:12.895Z,2.07
2023-03-26T12:31:53.168Z,2.53
2023-03-26T12:34:25.256Z,2.60
2023-03-26T12:36:55.936Z,3.00
2023-03-26T12:40:08.608Z,2.37
2023-03-26T12:44:53.291Z,2.60
2023-03-26T12:45:23.671Z,2.77
2023-03-26T12:48:01.903Z,3.13
2023-03-26T12:50:47.553Z,2.37
2023-03-26T12:53:39.626Z,2.80
2023-03-26T12:56:19.858Z,2.60
2023-03-26T12:59:08.604Z,3.00
2023-03-26T13:01:50.415Z,2.57
2023-03-26T13:04:43.634Z,1.67
2023-03-26T13:07:32.761Z,2.50
2023-03-26T13:10:31.632Z,2.78
2023-03-26T13:13:12.199Z,2.23
2023-03-26T13:15:48.899Z,2.90
2023-03-26T13:18:28.877Z,2.40
2023-03-26T13:21:03.881Z,2.23
2023-03-26T13:23:46.692Z,2.67
2023-03-26T13:26:27.612Z,2.57
2023-03-26T13:29:07.158Z,2.60
2023-03-26T13:31:40.950Z,2.30
2023-03-26T13:34:19.668Z,2.80
2023-03-26T13:37:04.062Z,2.17
2023-03-26T13:39:45.601Z,2.20
2023-03-26T13:42:33.838Z,2.57
2023-03-26T13:45:07.683Z,3.00
2023-03-26T13:47:44.514Z,2.33
2023-03-26T13:50:22.915Z,2.63
2023-03-26T13:52:56.754Z,2.67
2023-03-26T13:55:33.201Z,3.22
2023-03-26T13:58:07.340Z,2.38
2023-03-26T14:00:55.963Z,2.47
2023-03-26T14:03:31.594Z,2.05
2023-03-26T14:06:07.373Z,2.28
2023-03-26T14:08:43.343Z,2.50
2023-03-26T14:11:17.420Z,3.35
2023-03-26T14:13:50.845Z,2.35
2023-03-26T14:16:22.851Z,2.47
2023-03-26T14:18:59.298Z,2.67
2023-03-26T14:21:46.486Z,2.33
2023-03-26T14:24:34.894Z,2.67
2023-03-26T14:27:34.184Z,4.18
2023-03-26T14:30:33.301Z,3.42
2023-03-26T14:33:13.964Z,4.85
2023-03-26T14:35:48.242Z,2.83
2023-03-26T14:38:39.972Z,2.57
2023-03-26T14:41:23.939Z,2.27
2023-03-26T14:44:28.031Z,2.83
2023-03-26T14:47:16.972Z,2.67
2023-03-26T14:50:12.195Z,3.38
2023-03-26T14:52:49.012Z,2.57
2023-03-26T14:55:40.739Z,3.00
2023-03-26T14:58:44.974Z,3.25
2023-03-26T15:01:26.040Z,2.93
2023-03-26T15:04:34.567Z,3.25
2023-03-26T15:07:31.336Z,3.33
2023-03-26T15:10:43.268Z,3.47
2023-03-26T15:13:41.800Z,3.40
2023-03-26T15:16:28.243Z,3.20
2023-03-26T15:19:29.792Z,3.70
2023-03-26T15:22:29.571Z,4.63
2023-03-26T15:25:35.824Z,5.00
2023-03-26T15:28:53.142Z,3.20
2023-03-26T15:31:43.076Z,3.80
2023-03-26T15:34:51.029Z,3.80
2023-03-26T15:37:58.680Z,3.77
2023-03-26T15:40:38.124Z,3.27
2023-03-26T15:43:12.273Z,4.30
2023-03-26T15:45:43.579Z,3.07
2023-03-26T15:48:40.954Z,3.30
2023-03-26T15:51:31.823Z,3.67
2023-03-26T15:54:27.349Z,3.60
2023-03-26T15:57:09.475Z,3.77
2023-03-26T15:59:47.743Z,3.53
2023-03-26T16:02:28.379Z,4.17
2023-03-26T16:05:05.833Z,3.07
2023-03-26T16:07:55.589Z,2.70
2023-03-26T16:10:34.877Z,2.50
2023-03-26T16:13:31.860Z,3.03
2023-03-26T16:16:23.404Z,4.20
2023-03-26T16:18:58.402Z,3.20
2023-03-26T16:21:40.355Z,3.50
2023-03-26T16:24:26.983Z,3.27
2023-03-26T16:27:33.498Z,3.47
2023-03-26T16:30:30.226Z,3.63
2023-03-26T16:33:10.489Z,3.70
2023-03-26T16:36:08.282Z,3.93
2023-03-26T16:38:54.141Z,4.40
2023-03-26T16:41:27.978Z,3.43
2023-03-26T16:44:13.760Z,3.93
2023-03-26T16:46:50.654Z,3.90
2023-03-26T16:49:30.104Z,4.20
2023-03-26T16:52:23.251Z,3.50
2023-03-26T16:54:58.189Z,3.13
2023-03-26T16:57:31.901Z,3.13
2023-03-26T17:00:24.480Z,3.70
2023-03-26T17:03:06.289Z,3.50
2023-03-26T17:05:38.475Z,4.17
2023-03-26T17:08:16.460Z,4.30
2023-03-26T17:10:57.635Z,5.30
2023-03-26T17:13:35.310Z,4.50
2023-03-26T17:16:13.761Z,5.37
2023-03-26T17:18:49.088Z,5.07
2023-03-26T17:21:21.461Z,6.33
2023-03-26T17:24:06.884Z,4.33
2023-03-26T17:26:53.314Z,5.63
2023-03-26T17:29:37.973Z,5.97
2023-03-26T17:32:12.238Z,5.13
2023-03-26T17:34:56.737Z,5.03
2023-03-26T17:37:45.835Z,5.63
2023-03-26T17:40:49.847Z,5.57
2023-03-26T17:43:44.520Z,4.77
2023-03-26T17:46:33.628Z,5.93
2023-03-26T17:49:08.663Z,8.10
2023-03-26T17:51:51.376Z,9.47
2023-03-26T17:54:25.310Z,8.83
2023-03-26T17:56:56.523Z,9.30
2023-03-26T17:59:27.818Z,8.77
2023-03-26T18:02:00.913Z,9.87
2023-03-26T18:04:36.453Z,9.43
2023-03-26T18:07:27.765Z,7.77
2023-03-26T18:10:13.861Z,8.10
2023-03-26T18:13:05.297Z,8.93
2023-03-26T18:15:46.392Z,7.23
2023-03-26T18:18:19.898Z,9.73
2023-03-26T18:20:52.009Z,12.80
2023-03-26T18:23:26.958Z,11.73
2023-03-26T18:26:00.540Z,12.90
2023-03-26T18:28:41.599Z,13.30
2023-03-26T18:31:20.499Z,14.97
2023-03-26T18:33:55.724Z,15.33
2023-03-26T18:36:27.871Z,13.43
2023-03-26T18:38:59.056Z,14.23
2023-03-26T18:41:31.737Z,12.60
2023-03-26T18:44:04.147Z,11.57
2023-03-26T18:46:33.845Z,9.80
2023-03-26T18:49:04.194Z,10.50
2023-03-26T18:51:38.330Z,10.67
2023-03-26T18:54:18.090Z,10.90
2023-03-26T18:56:52.262Z,11.10
2023-03-26T18:59:41.761Z,11.90
2023-03-26T19:02:15.522Z,12.00
2023-03-26T19:04:50.234Z,11.90
2023-03-26T19:07:25.308Z,10.03
2023-03-26T19:09:56.671Z,12.07
2023-03-26T19:12:30.931Z,11.50
2023-03-26T19:15:06.060Z,11.37
2023-03-26T19:17:40.692Z,11.73
2023-03-26T19:20:17.310Z,10.63
2023-03-26T19:22:49.172Z,10.13
2023-03-26T19:25:22.220Z,9.70
2023-03-26T19:27:52.640Z,9.90
2023-03-26T19:30:30.889Z,10.80
2023-03-26T19:33:13.105Z,10.43
2023-03-26T19:35:46.539Z,8.90
2023-03-26T19:38:22.709Z,8.50
2023-03-26T19:40:53.175Z,8.53
2023-03-26T19:43:25.673Z,7.87
2023-03-26T19:46:03.075Z,8.00
2023-03-26T19:48:46.589Z,7.23
2023-03-26T19:51:22.993Z,6.37
2023-03-26T19:53:55.492Z,7.07
2023-03-26T19:56:24.561Z,5.80
2023-03-26T19:58:53.079Z,6.33
2023-03-26T20:01:24.134Z,6.90
2023-03-26T20:03:59.119Z,7.20
2023-03-26T20:06:42.547Z,8.70
2023-03-26T20:09:47.696Z,8.40
2023-03-26T20:12:04.855Z,7.97
2023-03-26T20:14:33.868Z,7.50
2023-03-26T20:17:02.836Z,8.30
2023-03-26T20:19:31.389Z,9.43
2023-03-26T20:22:05.584Z,8.43
2023-03-26T20:24:35.020Z,8.60
2023-03-26T20:27:03.777Z,9.90
2023-03-26T20:29:34.446Z,14.33
2023-03-26T20:32:06.432Z,18.97
2023-03-26T20:34:35.035Z,20.07
2023-03-26T20:37:12.731Z,21.57
2023-03-26T20:39:43.416Z,22.70
2023-03-26T20:42:15.808Z,24.53
2023-03-26T20:44:44.701Z,25.43
2023-03-26T20:47:14.327Z,25.87
2023-03-26T20:49:47.200Z,26.77
2023-03-26T20:52:22.796Z,26.97
2023-03-26T20:54:53.523Z,27.23
2023-03-26T20:57:23.637Z,27.47
2023-03-26T20:59:53.636Z,21.93
2023-03-26T21:02:23.399Z,20.70
2023-03-26T21:04:52.184Z,14.70
2023-03-26T21:07:22.329Z,20.97
2023-03-26T21:09:51.538Z,20.43
2023-03-26T21:12:29.546Z,17.43
2023-03-26T21:14:58.443Z,21.37
2023-03-26T21:17:28.227Z,20.93
2023-03-26T21:20:00.375Z,23.10
2023-03-26T21:22:37.212Z,25.33
2023-03-26T21:25:21.132Z,17.43
2023-03-26T21:28:00.762Z,22.40
2023-03-26T21:30:29.729Z,19.83
2023-03-26T21:32:59.682Z,14.77
2023-03-26T21:35:30.877Z,13.87
2023-03-26T21:38:05.038Z,12.90
2023-03-26T21:40:34.305Z,11.73
2023-03-26T21:43:03.727Z,13.27
2023-03-26T21:45:33.125Z,11.13
2023-03-26T21:48:02.717Z,10.77
2023-03-26T21:50:31.923Z,11.43
2023-03-26T21:53:02.850Z,9.13
2023-03-26T21:55:36.528Z,8.53
2023-03-26T21:58:42.031Z,7.37
2023-03-26T22:01:21.286Z,7.83
2023-03-26T22:03:59.194Z,7.80
2023-03-26T22:06:32.156Z,7.83
2023-03-26T22:09:02.987Z,8.40
2023-03-26T22:11:31.776Z,9.37
2023-03-26T22:14:01.574Z,8.70
2023-03-26T22:16:30.128Z,8.13
2023-03-26T22:18:58.859Z,7.53
2023-03-26T22:21:27.562Z,7.77
2023-03-26T22:23:56.287Z,8.13
2023-03-26T22:26:27.055Z,7.53
2023-03-26T22:28:56.868Z,7.10
2023-03-26T22:31:26.480Z,7.17
2023-03-26T22:33:56.090Z,6.87
2023-03-26T22:36:25.285Z,8.63
2023-03-26T22:38:56.643Z,7.20
2023-03-26T22:41:27.300Z,6.80
2023-03-26T22:43:59.530Z,6.93
2023-03-26T22:46:31.085Z,7.07
2023-03-26T22:49:00.542Z,6.57
2023-03-26T22:51:30.230Z,7.83
2023-03-26T22:53:58.950Z,7.00
2023-03-26T22:56:28.838Z,4.87
2023-03-26T22:58:57.912Z,6.20
2023-03-26T23:01:26.386Z,6.40
2023-03-26T23:03:56.274Z,5.53
2023-03-26T23:06:25.221Z,4.77
2023-03-26T23:08:54.363Z,6.77
2023-03-26T23:11:23.258Z,5.87
2023-03-26T23:13:53.504Z,6.43
2023-03-26T23:16:22.115Z,6.23
2023-03-26T23:18:50.984Z,5.13
2023-03-26T23:21:20.351Z,5.10
2023-03-26T23:23:51.654Z,5.87
2023-03-26T23:26:20.343Z,5.60
2023-03-26T23:28:51.094Z,4.97
2023-03-26T23:31:21.030Z,6.17
2023-03-26T23:33:50.432Z,4.97
2023-03-26T23:36:20.196Z,6.10
2023-03-26T23:38:49.462Z,5.97
2023-03-26T23:41:19.324Z,5.83
2023-03-26T23:43:54.740Z,5.17
2023-03-26T23:46:30.372Z,5.00
2023-03-26T23:49:02.465Z,5.13
2023-03-26T23:51:31.228Z,4.97
2023-03-26T23:54:00.651Z,4.60
2023-03-26T23:56:29.831Z,4.87
2023-03-26T23:58:59.248Z,5.03
